createdAt,value
2018-04-06T00:00:37.073Z,1019.26
2018-04-06T00:01:37.044Z,1019.27
2018-04-06T00:02:37.059Z,1019.29
2018-04-06T00:03:37.035Z,1019.27
2018-04-06T00:04:37.055Z,1019.29
2018-04-06T00:05:37.038Z,1019.32
2018-04-06T00:06:37.018Z,1019.31
2018-04-06T00:07:37.022Z,1019.34
2018-04-06T00:08:37.014Z,1019.30
2018-04-06T00:09:37.024Z,1019.36
2018-04-06T00:10:36.999Z,1019.34
2018-04-06T00:11:37.005Z,1019.34
2018-04-06T00:12:36.997Z,1019.39
2018-04-06T00:13:36.985Z,1019.38
2018-04-06T00:14:36.992Z,1019.38
2018-04-06T00:15:36.989Z,1019.34
2018-04-06T00:16:36.980Z,1019.36
2018-04-06T00:17:36.987Z,1019.30
2018-04-06T00:18:36.978Z,1019.34
2018-04-06T00:19:36.951Z,1019.31
2018-04-06T00:20:36.955Z,1019.32
2018-04-06T00:21:36.934Z,1019.31
2018-04-06T00:22:36.945Z,1019.32
2018-04-06T00:23:36.945Z,1019.27
2018-04-06T00:24:36.927Z,1019.30
2018-04-06T00:25:36.920Z,1019.27
2018-04-06T00:26:36.925Z,1019.26
2018-04-06T00:27:36.911Z,1019.27
2018-04-06T00:28:36.929Z,1019.27
2018-04-06T00:29:36.923Z,1019.26
2018-04-06T00:30:36.913Z,1019.26
2018-04-06T00:31:36.891Z,1019.29
2018-04-06T00:32:36.888Z,1019.28
2018-04-06T00:33:36.881Z,1019.28
2018-04-06T00:34:36.887Z,1019.27
2018-04-06T00:35:36.881Z,1019.28
2018-04-06T00:36:36.860Z,1019.25
2018-04-06T00:37:36.854Z,1019.22
2018-04-06T00:38:36.863Z,1019.22
2018-04-06T00:39:36.858Z,1019.21
2018-04-06T00:40:36.859Z,1019.21
2018-04-06T00:41:36.853Z,1019.21
2018-04-06T00:42:36.840Z,1019.17
2018-04-06T00:43:36.840Z,1019.13
2018-04-06T00:44:36.830Z,1019.15
2018-04-06T00:45:36.825Z,1019.16
2018-04-06T00:46:36.818Z,1019.16
2018-04-06T00:47:36.815Z,1019.13
2018-04-06T00:48:36.814Z,1019.18
2018-04-06T00:49:36.806Z,1019.20
2018-04-06T00:50:36.794Z,1019.19
2018-04-06T00:51:36.790Z,1019.22
2018-04-06T00:52:36.776Z,1019.23
2018-04-06T00:53:36.790Z,1019.26
2018-04-06T00:54:36.772Z,1019.24
2018-04-06T00:55:36.771Z,1019.25
2018-04-06T00:56:36.784Z,1019.23
2018-04-06T00:57:36.779Z,1019.25
2018-04-06T00:58:36.746Z,1019.21
2018-04-06T00:59:36.750Z,1019.20
2018-04-06T01:00:36.749Z,1019.17
2018-04-06T01:01:36.785Z,1019.20
2018-04-06T01:02:36.721Z,1019.17
2018-04-06T01:03:36.733Z,1019.20
2018-04-06T01:04:36.722Z,1019.13
2018-04-06T01:05:36.720Z,1019.18
2018-04-06T01:06:36.710Z,1019.12
2018-04-06T01:07:36.713Z,1019.12
2018-04-06T01:08:36.697Z,1019.10
2018-04-06T01:09:36.689Z,1019.07
2018-04-06T01:10:36.686Z,1019.12
2018-04-06T01:11:36.689Z,1019.10
2018-04-06T01:12:36.681Z,1019.10
2018-04-06T01:13:36.679Z,1019.09
2018-04-06T01:14:36.684Z,1019.09
2018-04-06T01:15:36.661Z,1019.07
2018-04-06T01:16:36.649Z,1019.11
2018-04-06T01:17:36.663Z,1019.07
2018-04-06T01:18:36.650Z,1019.07
2018-04-06T01:19:36.641Z,1019.06
2018-04-06T01:20:36.632Z,1019.07
2018-04-06T01:21:36.619Z,1019.08
2018-04-06T01:22:36.635Z,1019.08
2018-04-06T01:23:36.627Z,1019.04
2018-04-06T01:24:36.615Z,1019.05
2018-04-06T01:25:36.606Z,1019.05
2018-04-06T01:26:36.606Z,1019.09
2018-04-06T01:27:36.609Z,1019.06
2018-04-06T01:28:36.599Z,1019.06
2018-04-06T01:29:36.586Z,1019.06
2018-04-06T01:30:36.599Z,1019.07
2018-04-06T01:31:36.580Z,1019.11
2018-04-06T01:32:36.569Z,1019.12
2018-04-06T01:33:36.561Z,1019.08
2018-04-06T01:34:36.582Z,1019.10
2018-04-06T01:35:36.556Z,1019.11
2018-04-06T01:36:36.554Z,1019.12
2018-04-06T01:37:36.549Z,1019.12
2018-04-06T01:38:36.551Z,1019.10
2018-04-06T01:39:36.544Z,1019.10
2018-04-06T01:40:36.519Z,1019.11
2018-04-06T01:41:36.519Z,1019.13
2018-04-06T01:42:36.521Z,1019.18
2018-04-06T01:43:36.510Z,1019.19
2018-04-06T01:44:36.504Z,1019.18
2018-04-06T01:45:36.496Z,1019.16
2018-04-06T01:46:36.505Z,1019.13
2018-04-06T01:47:36.507Z,1019.12
2018-04-06T01:48:36.477Z,1019.11
2018-04-06T01:49:36.468Z,1019.10
2018-04-06T01:50:36.475Z,1019.08
2018-04-06T01:51:36.470Z,1019.10
2018-04-06T01:52:36.461Z,1019.04
2018-04-06T01:53:36.462Z,1019.02
2018-04-06T01:54:36.457Z,1019.01
2018-04-06T01:55:36.452Z,1018.98
2018-04-06T01:56:36.450Z,1018.99
2018-04-06T01:57:36.443Z,1019.00
2018-04-06T01:58:36.430Z,1019.04
2018-04-06T01:59:36.422Z,1019.00
2018-04-06T02:00:36.423Z,1019.03
2018-04-06T02:01:36.432Z,1019.04
2018-04-06T02:02:36.410Z,1019.04
2018-04-06T02:03:36.403Z,1019.01
2018-04-06T02:04:36.415Z,1019.00
2018-04-06T02:05:36.405Z,1018.98
2018-04-06T02:06:36.394Z,1018.99
2018-04-06T02:07:36.387Z,1019.02
2018-04-06T02:08:36.381Z,1019.02
2018-04-06T02:09:36.386Z,1019.03
2018-04-06T02:10:36.374Z,1019.04
2018-04-06T02:11:36.360Z,1019.02
2018-04-06T02:12:36.361Z,1019.06
2018-04-06T02:13:36.361Z,1019.02
2018-04-06T02:14:36.358Z,1019.01
2018-04-06T02:15:36.355Z,1018.98
2018-04-06T02:16:36.333Z,1018.98
2018-04-06T02:17:36.336Z,1018.99
2018-04-06T02:18:36.331Z,1018.99
2018-04-06T02:19:36.315Z,1018.98
2018-04-06T02:20:36.320Z,1018.98
2018-04-06T02:21:36.317Z,1019.02
2018-04-06T02:22:36.307Z,1019.02
2018-04-06T02:23:36.302Z,1019.00
2018-04-06T02:24:36.346Z,1019.00
2018-04-06T02:25:36.285Z,1019.01
2018-04-06T02:26:36.290Z,1019.04
2018-04-06T02:27:36.277Z,1019.00
2018-04-06T02:28:36.280Z,1019.02
2018-04-06T02:29:36.268Z,1019.05
2018-04-06T02:30:36.262Z,1019.03
2018-04-06T02:31:36.262Z,1019.02
2018-04-06T02:32:36.248Z,1019.00
2018-04-06T02:33:36.238Z,1019.01
2018-04-06T02:34:36.253Z,1019.01
2018-04-06T02:35:36.242Z,1018.98
2018-04-06T02:36:36.251Z,1019.01
2018-04-06T02:37:36.228Z,1019.01
2018-04-06T02:38:36.228Z,1019.07
2018-04-06T02:39:36.221Z,1019.03
2018-04-06T02:40:36.212Z,1019.06
2018-04-06T02:41:36.209Z,1019.07
2018-04-06T02:42:36.208Z,1019.08
2018-04-06T02:43:36.232Z,1019.04
2018-04-06T02:44:36.197Z,1019.00
2018-04-06T02:45:36.188Z,1019.03
2018-04-06T02:46:36.181Z,1019.07
2018-04-06T02:47:36.182Z,1019.03
2018-04-06T02:48:36.171Z,1019.05
2018-04-06T02:49:36.163Z,1019.05
2018-04-06T02:50:36.165Z,1019.02
2018-04-06T02:51:36.153Z,1019.05
2018-04-06T02:52:36.150Z,1019.02
2018-04-06T02:53:36.141Z,1019.03
2018-04-06T02:54:36.131Z,1019.07
2018-04-06T02:55:36.127Z,1019.03
2018-04-06T02:56:36.114Z,1019.03
2018-04-06T02:57:36.122Z,1018.97
2018-04-06T02:58:36.118Z,1018.95
2018-04-06T02:59:36.137Z,1018.93
2018-04-06T03:00:36.111Z,1018.91
2018-04-06T03:01:36.107Z,1018.90
2018-04-06T03:02:36.097Z,1018.94
2018-04-06T03:03:36.078Z,1018.92
2018-04-06T03:04:36.088Z,1018.94
2018-04-06T03:05:36.073Z,1018.92
2018-04-06T03:06:36.073Z,1018.89
2018-04-06T03:07:36.076Z,1018.92
2018-04-06T03:08:36.063Z,1018.91
2018-04-06T03:09:36.057Z,1018.90
2018-04-06T03:10:36.072Z,1018.91
2018-04-06T03:11:36.054Z,1018.88
2018-04-06T03:12:36.044Z,1018.87
2018-04-06T03:13:36.043Z,1018.90
2018-04-06T03:14:36.032Z,1018.91
2018-04-06T03:15:36.027Z,1018.89
2018-04-06T03:16:36.022Z,1018.90
2018-04-06T03:17:36.014Z,1018.90
2018-04-06T03:18:36.012Z,1018.90
2018-04-06T03:19:36.021Z,1018.85
2018-04-06T03:20:35.997Z,1018.88
2018-04-06T03:21:36.022Z,1018.87
2018-04-06T03:22:35.982Z,1018.88
2018-04-06T03:23:35.988Z,1018.82
2018-04-06T03:24:35.985Z,1018.85
2018-04-06T03:25:35.987Z,1018.81
2018-04-06T03:26:35.976Z,1018.84
2018-04-06T03:27:35.964Z,1018.82
2018-04-06T03:28:35.959Z,1018.83
2018-04-06T03:29:35.958Z,1018.83
2018-04-06T03:30:35.943Z,1018.84
2018-04-06T03:31:35.940Z,1018.85
2018-04-06T03:32:35.933Z,1018.86
2018-04-06T03:33:35.934Z,1018.87
2018-04-06T03:34:35.928Z,1018.81
2018-04-06T03:35:35.909Z,1018.83
2018-04-06T03:36:35.914Z,1018.81
2018-04-06T03:37:35.907Z,1018.81
2018-04-06T03:38:35.903Z,1018.84
2018-04-06T03:39:35.894Z,1018.85
2018-04-06T03:40:35.889Z,1018.89
2018-04-06T03:41:35.893Z,1018.91
2018-04-06T03:42:35.877Z,1018.88
2018-04-06T03:43:35.875Z,1018.88
2018-04-06T03:44:35.882Z,1018.91
2018-04-06T03:45:35.865Z,1018.84
2018-04-06T03:46:35.865Z,1018.90
2018-04-06T03:47:35.862Z,1018.93
2018-04-06T03:48:35.848Z,1018.90
2018-04-06T03:49:35.843Z,1018.91
2018-04-06T03:50:35.849Z,1018.92
2018-04-06T03:51:35.836Z,1018.93
2018-04-06T03:52:35.834Z,1018.92
2018-04-06T03:53:35.823Z,1018.92
2018-04-06T03:54:35.819Z,1018.94
2018-04-06T03:55:35.812Z,1018.98
2018-04-06T03:56:35.800Z,1019.01
2018-04-06T03:57:35.788Z,1018.99
2018-04-06T03:58:35.807Z,1019.01
2018-04-06T03:59:35.790Z,1018.97
2018-04-06T04:00:35.793Z,1018.95
2018-04-06T04:01:35.778Z,1018.94
2018-04-06T04:02:35.774Z,1018.96
2018-04-06T04:03:35.772Z,1018.93
2018-04-06T04:04:35.778Z,1018.95
2018-04-06T04:05:35.758Z,1018.95
2018-04-06T04:06:35.759Z,1018.96
2018-04-06T04:07:35.745Z,1018.96
2018-04-06T04:08:35.733Z,1018.93
2018-04-06T04:09:35.745Z,1018.92
2018-04-06T04:10:35.739Z,1018.94
2018-04-06T04:11:35.729Z,1018.91
2018-04-06T04:12:35.725Z,1018.92
2018-04-06T04:13:35.724Z,1018.94
2018-04-06T04:14:35.743Z,1018.94
2018-04-06T04:15:35.713Z,1018.95
2018-04-06T04:16:35.703Z,1018.94
2018-04-06T04:17:35.703Z,1018.94
2018-04-06T04:18:35.697Z,1019.00
2018-04-06T04:19:35.675Z,1018.98
2018-04-06T04:20:35.675Z,1018.98
2018-04-06T04:21:35.675Z,1018.97
2018-04-06T04:22:35.684Z,1018.96
2018-04-06T04:23:35.662Z,1018.99
2018-04-06T04:24:35.655Z,1018.98
2018-04-06T04:25:35.655Z,1018.96
2018-04-06T04:26:35.648Z,1018.93
2018-04-06T04:27:35.644Z,1018.92
2018-04-06T04:28:35.644Z,1018.89
2018-04-06T04:29:35.637Z,1018.90
2018-04-06T04:30:35.628Z,1018.86
2018-04-06T04:31:35.626Z,1018.82
2018-04-06T04:32:35.620Z,1018.78
2018-04-06T04:33:35.612Z,1018.80
2018-04-06T04:34:35.592Z,1018.74
2018-04-06T04:35:35.602Z,1018.73
2018-04-06T04:36:35.591Z,1018.71
2018-04-06T04:37:35.590Z,1018.72
2018-04-06T04:38:35.582Z,1018.72
2018-04-06T04:39:35.579Z,1018.72
2018-04-06T04:40:35.573Z,1018.72
2018-04-06T04:41:35.565Z,1018.71
2018-04-06T04:42:35.564Z,1018.67
2018-04-06T04:43:35.563Z,1018.73
2018-04-06T04:44:35.553Z,1018.76
2018-04-06T04:45:35.543Z,1018.79
2018-04-06T04:46:35.553Z,1018.79
2018-04-06T04:47:35.539Z,1018.79
2018-04-06T04:48:35.531Z,1018.82
2018-04-06T04:49:35.524Z,1018.86
2018-04-06T04:50:35.518Z,1018.81
2018-04-06T04:51:35.525Z,1018.84
2018-04-06T04:52:35.509Z,1018.78
2018-04-06T04:53:35.503Z,1018.82
2018-04-06T04:54:35.495Z,1018.82
2018-04-06T04:55:35.494Z,1018.82
2018-04-06T04:56:35.493Z,1018.83
2018-04-06T04:57:35.495Z,1018.86
2018-04-06T04:58:35.474Z,1018.86
2018-04-06T04:59:35.484Z,1018.84
2018-04-06T05:00:35.486Z,1018.84
2018-04-06T05:01:35.455Z,1018.83
2018-04-06T05:02:35.455Z,1018.84
2018-04-06T05:03:35.453Z,1018.83
2018-04-06T05:04:35.449Z,1018.86
2018-04-06T05:05:35.439Z,1018.91
2018-04-06T05:06:35.435Z,1018.88
2018-04-06T05:07:35.440Z,1018.91
2018-04-06T05:08:35.432Z,1018.90
2018-04-06T05:09:35.405Z,1018.86
2018-04-06T05:10:35.404Z,1018.85
2018-04-06T05:11:35.420Z,1018.86
2018-04-06T05:12:35.405Z,1018.81
2018-04-06T05:13:35.414Z,1018.80
2018-04-06T05:14:35.393Z,1018.79
2018-04-06T05:15:35.404Z,1018.83
2018-04-06T05:16:35.383Z,1018.81
2018-04-06T05:17:35.378Z,1018.88
2018-04-06T05:18:35.410Z,1018.90
2018-04-06T05:19:35.369Z,1018.88
2018-04-06T05:20:35.352Z,1018.87
2018-04-06T05:21:35.372Z,1018.83
2018-04-06T05:22:35.371Z,1018.81
2018-04-06T05:23:35.356Z,1018.79
2018-04-06T05:24:35.377Z,1018.80
2018-04-06T05:25:35.341Z,1018.84
2018-04-06T05:26:35.335Z,1018.89
2018-04-06T05:27:35.344Z,1018.86
2018-04-06T05:28:35.325Z,1018.87
2018-04-06T05:29:35.309Z,1018.85
2018-04-06T05:30:35.329Z,1018.84
2018-04-06T05:31:35.297Z,1018.85
2018-04-06T05:32:35.291Z,1018.88
2018-04-06T05:33:35.298Z,1018.88
2018-04-06T05:34:35.290Z,1018.91
2018-04-06T05:35:35.300Z,1018.88
2018-04-06T05:36:35.269Z,1018.89
2018-04-06T05:37:35.279Z,1018.90
2018-04-06T05:38:35.265Z,1018.93
2018-04-06T05:39:35.268Z,1018.92
2018-04-06T05:40:35.250Z,1018.90
2018-04-06T05:41:35.255Z,1018.86
2018-04-06T05:42:35.235Z,1018.86
2018-04-06T05:43:35.234Z,1018.90
2018-04-06T05:44:35.230Z,1018.92
2018-04-06T05:45:35.221Z,1018.92
2018-04-06T05:46:35.246Z,1018.89
2018-04-06T05:47:35.226Z,1018.85
2018-04-06T05:48:35.202Z,1018.85
2018-04-06T05:49:35.205Z,1018.88
2018-04-06T05:50:35.215Z,1018.85
2018-04-06T05:51:35.203Z,1018.84
2018-04-06T05:52:35.189Z,1018.81
2018-04-06T05:53:35.186Z,1018.79
2018-04-06T05:54:35.181Z,1018.81
2018-04-06T05:55:35.196Z,1018.75
2018-04-06T05:56:35.173Z,1018.71
2018-04-06T05:57:35.169Z,1018.66
2018-04-06T05:58:35.165Z,1018.66
2018-04-06T05:59:35.169Z,1018.65
2018-04-06T06:00:35.154Z,1018.66
2018-04-06T06:01:35.140Z,1018.65
2018-04-06T06:02:35.141Z,1018.64
2018-04-06T06:03:35.137Z,1018.63
2018-04-06T06:04:35.120Z,1018.64
2018-04-06T06:05:35.123Z,1018.62
2018-04-06T06:06:35.116Z,1018.65
2018-04-06T06:07:35.111Z,1018.69
2018-04-06T06:08:35.100Z,1018.73
2018-04-06T06:09:35.099Z,1018.73
2018-04-06T06:10:35.090Z,1018.74
2018-04-06T06:11:35.086Z,1018.73
2018-04-06T06:12:35.085Z,1018.73
2018-04-06T06:13:35.079Z,1018.76
2018-04-06T06:14:35.075Z,1018.77
2018-04-06T06:15:35.066Z,1018.78
2018-04-06T06:16:35.060Z,1018.82
2018-04-06T06:17:35.055Z,1018.80
2018-04-06T06:18:35.064Z,1018.79
2018-04-06T06:19:35.055Z,1018.83
2018-04-06T06:20:35.054Z,1018.78
2018-04-06T06:21:35.036Z,1018.72
2018-04-06T06:22:35.038Z,1018.68
2018-04-06T06:23:35.020Z,1018.71
2018-04-06T06:24:35.030Z,1018.69
2018-04-06T06:25:35.027Z,1018.67
2018-04-06T06:26:35.015Z,1018.71
2018-04-06T06:27:35.002Z,1018.65
2018-04-06T06:28:35.004Z,1018.65
2018-04-06T06:29:35.010Z,1018.66
2018-04-06T06:30:34.990Z,1018.69
2018-04-06T06:31:34.995Z,1018.65
2018-04-06T06:32:35.001Z,1018.71
2018-04-06T06:33:34.977Z,1018.68
2018-04-06T06:34:34.971Z,1018.66
2018-04-06T06:35:34.971Z,1018.72
2018-04-06T06:36:34.955Z,1018.67
2018-04-06T06:37:34.952Z,1018.67
2018-04-06T06:38:34.950Z,1018.62
2018-04-06T06:39:34.948Z,1018.65
2018-04-06T06:40:34.951Z,1018.70
2018-04-06T06:41:34.930Z,1018.74
2018-04-06T06:42:34.932Z,1018.68
2018-04-06T06:43:34.921Z,1018.65
2018-04-06T06:44:34.934Z,1018.60
2018-04-06T06:45:34.924Z,1018.57
2018-04-06T06:46:34.938Z,1018.62
2018-04-06T06:47:34.908Z,1018.57
2018-04-06T06:48:34.902Z,1018.59
2018-04-06T06:49:34.890Z,1018.55
2018-04-06T06:50:34.893Z,1018.58
2018-04-06T06:51:34.892Z,1018.54
2018-04-06T06:52:34.881Z,1018.61
2018-04-06T06:53:34.875Z,1018.56
2018-04-06T06:54:34.877Z,1018.61
2018-04-06T06:55:34.860Z,1018.50
2018-04-06T06:56:34.857Z,1018.46
2018-04-06T06:57:34.852Z,1018.45
2018-04-06T06:58:34.863Z,1018.44
2018-04-06T06:59:34.861Z,1018.48
2018-04-06T07:00:34.835Z,1018.43
2018-04-06T07:01:34.841Z,1018.36
2018-04-06T07:02:34.835Z,1018.28
2018-04-06T07:03:34.835Z,1018.24
2018-04-06T07:04:34.834Z,1018.24
2018-04-06T07:05:34.810Z,1018.18
2018-04-06T07:06:34.819Z,1018.18
2018-04-06T07:07:34.802Z,1018.15
2018-04-06T07:08:34.800Z,1018.15
2018-04-06T07:09:34.801Z,1018.11
2018-04-06T07:10:34.781Z,1018.09
2018-04-06T07:11:34.796Z,1018.06
2018-04-06T07:12:34.795Z,1018.02
2018-04-06T07:13:34.780Z,1017.99
2018-04-06T07:14:34.808Z,1017.99
2018-04-06T07:15:34.772Z,1017.97
2018-04-06T07:16:34.776Z,1017.98
2018-04-06T07:17:34.750Z,1017.95
2018-04-06T07:18:34.750Z,1017.84
2018-04-06T07:19:34.755Z,1017.76
2018-04-06T07:20:34.735Z,1017.77
2018-04-06T07:21:34.731Z,1017.78
2018-04-06T07:22:34.727Z,1017.78
2018-04-06T07:23:34.726Z,1017.79
2018-04-06T07:24:34.745Z,1017.86
2018-04-06T07:25:34.717Z,1017.80
2018-04-06T07:26:34.711Z,1017.80
2018-04-06T07:27:34.711Z,1017.82
2018-04-06T07:28:34.697Z,1017.81
2018-04-06T07:29:34.693Z,1017.78
2018-04-06T07:30:34.705Z,1017.78
2018-04-06T07:31:34.682Z,1017.72
2018-04-06T07:32:34.682Z,1017.74
2018-04-06T07:33:34.686Z,1017.68
2018-04-06T07:34:34.667Z,1017.78
2018-04-06T07:35:34.666Z,1017.69
2018-04-06T07:36:34.680Z,1017.82
2018-04-06T07:37:34.660Z,1017.72
2018-04-06T07:38:34.656Z,1017.75
2018-04-06T07:39:34.660Z,1017.82
2018-04-06T07:40:34.647Z,1017.70
2018-04-06T07:41:34.647Z,1017.71
2018-04-06T07:42:34.646Z,1017.69
2018-04-06T07:43:34.643Z,1017.73
2018-04-06T07:44:34.631Z,1017.73
2018-04-06T07:45:34.628Z,1017.74
2018-04-06T07:46:34.627Z,1017.72
2018-04-06T07:47:34.611Z,1017.71
2018-04-06T07:48:34.606Z,1017.71
2018-04-06T07:49:34.597Z,1017.72
2018-04-06T07:50:34.637Z,1017.69
2018-04-06T07:51:34.592Z,1017.73
2018-04-06T07:52:34.598Z,1017.70
2018-04-06T07:53:34.579Z,1017.64
2018-04-06T07:54:34.578Z,1017.62
2018-04-06T07:55:34.582Z,1017.58
2018-04-06T07:56:34.561Z,1017.61
2018-04-06T07:57:34.563Z,1017.56
2018-04-06T07:58:34.562Z,1017.60
2018-04-06T07:59:34.552Z,1017.56
2018-04-06T08:00:34.553Z,1017.55
2018-04-06T08:01:34.553Z,1017.49
2018-04-06T08:02:34.541Z,1017.50
2018-04-06T08:03:34.526Z,1017.42
2018-04-06T08:04:34.544Z,1017.44
2018-04-06T08:05:34.534Z,1017.46
2018-04-06T08:06:34.524Z,1017.54
2018-04-06T08:07:34.532Z,1017.54
2018-04-06T08:08:34.516Z,1017.54
2018-04-06T08:09:34.521Z,1017.55
2018-04-06T08:10:34.517Z,1017.55
2018-04-06T08:11:34.493Z,1017.61
2018-04-06T08:12:34.497Z,1017.62
2018-04-06T08:13:34.491Z,1017.63
2018-04-06T08:14:34.493Z,1017.63
2018-04-06T08:15:34.499Z,1017.64
2018-04-06T08:16:34.469Z,1017.59
2018-04-06T08:17:34.480Z,1017.65
2018-04-06T08:18:34.482Z,1017.60
2018-04-06T08:19:34.461Z,1017.60
2018-04-06T08:20:34.453Z,1017.61
2018-04-06T08:21:34.454Z,1017.68
2018-04-06T08:22:34.444Z,1017.63
2018-04-06T08:23:34.442Z,1017.67
2018-04-06T08:24:34.438Z,1017.59
2018-04-06T08:25:34.437Z,1017.66
2018-04-06T08:26:34.433Z,1017.63
2018-04-06T08:27:34.431Z,1017.64
2018-04-06T08:28:34.446Z,1017.64
2018-04-06T08:29:34.423Z,1017.63
2018-04-06T08:30:34.418Z,1017.61
2018-04-06T08:31:34.421Z,1017.55
2018-04-06T08:32:34.415Z,1017.76
2018-04-06T08:33:34.416Z,1017.58
2018-04-06T08:34:34.393Z,1017.62
2018-04-06T08:35:34.398Z,1017.64
2018-04-06T08:36:34.389Z,1017.55
2018-04-06T08:37:34.387Z,1017.45
2018-04-06T08:38:34.379Z,1017.58
2018-04-06T08:39:34.367Z,1017.53
2018-04-06T08:40:34.367Z,1017.58
2018-04-06T08:41:34.363Z,1017.51
2018-04-06T08:42:34.365Z,1017.63
2018-04-06T08:43:34.354Z,1017.60
2018-04-06T08:44:34.368Z,1017.67
2018-04-06T08:45:34.358Z,1017.57
2018-04-06T08:46:34.352Z,1017.67
2018-04-06T08:47:34.340Z,1017.61
2018-04-06T08:48:34.334Z,1017.59
2018-04-06T08:49:34.330Z,1017.59
2018-04-06T08:50:34.326Z,1017.53
2018-04-06T08:51:34.323Z,1017.62
2018-04-06T08:52:34.314Z,1017.54
2018-04-06T08:53:34.312Z,1017.61
2018-04-06T08:54:34.298Z,1017.56
2018-04-06T08:55:34.303Z,1017.50
2018-04-06T08:56:34.293Z,1017.53
2018-04-06T08:57:34.301Z,1017.40
2018-04-06T08:58:34.292Z,1017.46
2018-04-06T08:59:34.325Z,1017.33
2018-04-06T09:00:34.282Z,1017.53
2018-04-06T09:01:34.279Z,1017.55
2018-04-06T09:02:34.278Z,1017.45
2018-04-06T09:03:34.263Z,1017.44
2018-04-06T09:04:34.260Z,1017.34
2018-04-06T09:05:34.255Z,1017.35
2018-04-06T09:06:34.250Z,1017.32
2018-04-06T09:07:34.238Z,1017.33
2018-04-06T09:08:34.264Z,1017.32
2018-04-06T09:09:34.244Z,1017.38
2018-04-06T09:10:34.242Z,1017.34
2018-04-06T09:11:34.228Z,1017.40
2018-04-06T09:12:34.222Z,1017.34
2018-04-06T09:13:34.237Z,1017.42
2018-04-06T09:14:34.227Z,1017.45
2018-04-06T09:15:34.207Z,1017.34
2018-04-06T09:16:34.203Z,1017.28
2018-04-06T09:17:34.199Z,1017.24
2018-04-06T09:18:34.200Z,1017.18
2018-04-06T09:19:34.207Z,1017.24
2018-04-06T09:20:34.191Z,1017.26
2018-04-06T09:21:34.189Z,1017.23
2018-04-06T09:22:34.173Z,1017.15
2018-04-06T09:23:34.173Z,1017.15
2018-04-06T09:24:34.186Z,1017.14
2018-04-06T09:25:34.192Z,1017.13
2018-04-06T09:26:34.161Z,1017.11
2018-04-06T09:27:34.177Z,1017.09
2018-04-06T09:28:34.150Z,1017.08
2018-04-06T09:29:34.155Z,1017.04
2018-04-06T09:30:34.144Z,1017.05
2018-04-06T09:31:34.146Z,1017.00
2018-04-06T09:32:34.133Z,1017.04
2018-04-06T09:33:34.144Z,1016.97
2018-04-06T09:34:34.133Z,1017.02
2018-04-06T09:35:34.119Z,1016.98
2018-04-06T09:36:34.110Z,1016.90
2018-04-06T09:37:34.128Z,1016.90
2018-04-06T09:38:34.103Z,1016.92
2018-04-06T09:39:34.103Z,1016.98
2018-04-06T09:40:34.106Z,1016.95
2018-04-06T09:41:34.136Z,1016.94
2018-04-06T09:42:34.089Z,1016.98
2018-04-06T09:43:34.103Z,1016.97
2018-04-06T09:44:34.085Z,1016.88
2018-04-06T09:45:34.090Z,1016.96
2018-04-06T09:46:34.073Z,1016.92
2018-04-06T09:47:34.072Z,1016.90
2018-04-06T09:48:34.062Z,1016.91
2018-04-06T09:49:34.075Z,1016.82
2018-04-06T09:50:34.070Z,1016.85
2018-04-06T09:51:34.083Z,1016.79
2018-04-06T09:52:34.053Z,1016.84
2018-04-06T09:53:34.049Z,1016.77
2018-04-06T09:54:34.055Z,1016.79
2018-04-06T09:55:34.027Z,1016.76
2018-04-06T09:56:34.033Z,1016.77
2018-04-06T09:57:34.020Z,1016.81
2018-04-06T09:58:34.021Z,1016.77
2018-04-06T09:59:34.010Z,1016.78
2018-04-06T10:00:34.028Z,1016.73
2018-04-06T10:01:34.025Z,1016.84
2018-04-06T10:02:34.009Z,1016.77
2018-04-06T10:03:34.000Z,1016.78
2018-04-06T10:04:33.993Z,1016.84
2018-04-06T10:05:33.989Z,1016.73
2018-04-06T10:06:33.984Z,1016.74
2018-04-06T10:07:33.985Z,1016.69
2018-04-06T10:08:33.976Z,1016.69
2018-04-06T10:09:33.964Z,1016.68
2018-04-06T10:10:33.963Z,1016.67
2018-04-06T10:11:33.955Z,1016.69
2018-04-06T10:12:33.951Z,1016.73
2018-04-06T10:13:33.961Z,1016.66
2018-04-06T10:14:33.950Z,1016.61
2018-04-06T10:15:33.950Z,1016.58
2018-04-06T10:16:33.955Z,1016.58
2018-04-06T10:17:33.931Z,1016.64
2018-04-06T10:18:33.966Z,1016.57
2018-04-06T10:19:33.925Z,1016.62
2018-04-06T10:20:33.922Z,1016.59
2018-04-06T10:21:33.920Z,1016.56
2018-04-06T10:22:33.917Z,1016.58
2018-04-06T10:23:33.906Z,1016.56
2018-04-06T10:24:33.907Z,1016.59
2018-04-06T10:25:33.890Z,1016.51
2018-04-06T10:26:33.892Z,1016.54
2018-04-06T10:27:33.886Z,1016.55
2018-04-06T10:28:33.881Z,1016.52
2018-04-06T10:29:33.895Z,1016.53
2018-04-06T10:30:33.876Z,1016.51
2018-04-06T10:31:33.884Z,1016.46
2018-04-06T10:32:33.891Z,1016.56
2018-04-06T10:33:33.862Z,1016.41
2018-04-06T10:34:33.866Z,1016.48
2018-04-06T10:35:33.856Z,1016.47
2018-04-06T10:36:33.850Z,1016.41
2018-04-06T10:37:33.859Z,1016.49
2018-04-06T10:38:33.836Z,1016.42
2018-04-06T10:39:33.834Z,1016.41
2018-04-06T10:40:33.892Z,1016.41
2018-04-06T10:41:33.820Z,1016.49
2018-04-06T10:42:33.830Z,1016.44
2018-04-06T10:43:33.818Z,1016.49
2018-04-06T10:44:33.810Z,1016.36
2018-04-06T10:45:33.822Z,1016.29
2018-04-06T10:46:33.799Z,1016.50
2018-04-06T10:47:33.797Z,1016.25
2018-04-06T10:48:33.800Z,1016.20
2018-04-06T10:49:33.807Z,1016.20
2018-04-06T10:50:33.784Z,1016.16
2018-04-06T10:51:33.803Z,1016.28
2018-04-06T10:52:33.774Z,1016.20
2018-04-06T10:53:33.773Z,1016.26
2018-04-06T10:54:33.767Z,1016.13
2018-04-06T10:55:33.782Z,1016.22
2018-04-06T10:56:33.756Z,1016.14
2018-04-06T10:57:33.752Z,1016.15
2018-04-06T10:58:33.783Z,1016.11
2018-04-06T10:59:33.756Z,1016.21
2018-04-06T11:00:33.750Z,1016.16
2018-04-06T11:01:33.733Z,1016.21
2018-04-06T11:02:33.728Z,1016.17
2018-04-06T11:03:33.736Z,1016.17
2018-04-06T11:04:33.721Z,1016.23
2018-04-06T11:05:33.732Z,1016.13
2018-04-06T11:06:33.722Z,1016.15
2018-04-06T11:07:33.700Z,1016.06
2018-04-06T11:08:33.723Z,1016.14
2018-04-06T11:09:33.698Z,1016.07
2018-04-06T11:10:33.695Z,1015.91
2018-04-06T11:11:33.684Z,1015.99
2018-04-06T11:12:33.689Z,1015.93
2018-04-06T11:13:33.674Z,1015.93
2018-04-06T11:14:33.688Z,1015.96
2018-04-06T11:15:33.676Z,1015.98
2018-04-06T11:16:33.683Z,1015.95
2018-04-06T11:17:33.663Z,1015.90
2018-04-06T11:18:33.656Z,1015.97
2018-04-06T11:19:33.662Z,1016.00
2018-04-06T11:20:33.666Z,1016.01
2018-04-06T11:21:33.640Z,1015.91
2018-04-06T11:22:33.638Z,1015.92
2018-04-06T11:23:33.637Z,1015.93
2018-04-06T11:24:33.640Z,1016.00
2018-04-06T11:25:33.635Z,1015.89
2018-04-06T11:26:33.616Z,1015.85
2018-04-06T11:27:33.616Z,1015.93
2018-04-06T11:28:33.618Z,1015.86
2018-04-06T11:29:33.618Z,1015.90
2018-04-06T11:30:33.627Z,1015.85
2018-04-06T11:31:33.601Z,1015.85
2018-04-06T11:32:33.588Z,1015.84
2018-04-06T11:33:33.579Z,1015.86
2018-04-06T11:34:33.582Z,1015.78
2018-04-06T11:35:33.575Z,1015.87
2018-04-06T11:36:33.573Z,1015.98
2018-04-06T11:37:33.570Z,1015.74
2018-04-06T11:38:33.593Z,1015.85
2018-04-06T11:39:33.575Z,1015.78
2018-04-06T11:40:33.547Z,1015.76
2018-04-06T11:41:33.559Z,1015.73
2018-04-06T11:42:33.563Z,1015.70
2018-04-06T11:43:33.540Z,1015.60
2018-04-06T11:44:33.540Z,1015.55
2018-04-06T11:45:33.535Z,1015.63
2018-04-06T11:46:33.528Z,1015.61
2018-04-06T11:47:33.533Z,1015.66
2018-04-06T11:48:33.532Z,1015.63
2018-04-06T11:49:33.523Z,1015.50
2018-04-06T11:50:33.508Z,1015.54
2018-04-06T11:51:33.502Z,1015.51
2018-04-06T11:52:33.512Z,1015.47
2018-04-06T11:53:33.487Z,1015.44
2018-04-06T11:54:33.494Z,1015.35
2018-04-06T11:55:33.493Z,1015.38
2018-04-06T11:56:33.502Z,1015.37
2018-04-06T11:57:33.474Z,1015.46
2018-04-06T11:58:33.476Z,1015.25
2018-04-06T11:59:33.471Z,1015.17
2018-04-06T12:00:33.467Z,1015.22
2018-04-06T12:01:33.471Z,1015.28
2018-04-06T12:02:33.454Z,1015.24
2018-04-06T12:03:33.456Z,1015.15
2018-04-06T12:04:33.449Z,1015.17
2018-04-06T12:05:33.436Z,1015.23